Time;durP1;ratioP1;P1;durP2;ratioP2;P2;SDS_P1;SDS_P2;PMS_P1;PMS_P2;Temp;Humidity;BMP_temperature;BMP_pressure;BME280_temperature;BME280_humidity;BME280_pressure;Samples;Min_cycle;Max_cycle;Signal;HPM_P1;HPM_P2
2021/08/22 00:00:53;;;;;;;;;;;;;;;16.43;84.62;100549.08;1684711;84;20438;-82
2021/08/22 00:03:23;;;;;;;;;;;;;;;16.45;83.88;100547.08;1690069;83;20161;-82
2021/08/22 00:05:50;;;;;;;;;;;;;;;16.44;83.81;100544.59;1685414;83;20155;-84
2021/08/22 00:08:19;;;;;;;;;;;;;;;16.35;84.41;100546.52;1686292;83;20225;-83
2021/08/22 00:10:49;;;;;;;;;;;;;;;16.30;85.02;100539.59;1687402;83;20103;-83
2021/08/22 00:13:17;;;;;;;;;;;;;;;16.30;85.02;100539.59;1688383;84;21165;-85
2021/08/22 00:15:43;;;;;;;;;;;;;;;16.31;85.15;100541.23;1664515;84;20489;-85
2021/08/22 00:18:08;;;;;;;;;;;;;;;16.24;85.51;100538.99;1684226;84;20216;-85
2021/08/22 00:20:36;;;;;;;;;;;;;;;16.22;85.44;100537.00;1684683;83;21316;-84
2021/08/22 00:23:01;;;;;;;;;;;;;;;16.25;85.12;100540.62;1689430;83;20175;-85
2021/08/22 00:25:29;;;;;;;;;;;;;;;16.29;84.87;100539.26;1690401;83;21343;-84
2021/08/22 00:27:55;;;;;;;;;;;;;;;16.28;84.96;100534.93;1685615;84;20226;-85
2021/08/22 00:30:20;;;;;;;;;;;;;;;16.26;85.02;100534.30;1685778;84;20190;-85
2021/08/22 00:32:48;;;;;;;;;;;;;;;16.32;84.42;100533.56;1686601;83;20122;-85
2021/08/22 00:35:17;;;;;;;;;;;;;;;16.34;84.35;100528.86;1687302;84;20121;-84
2021/08/22 00:37:42;;;;;;;;;;;;;;;16.37;84.17;100531.16;1689973;83;21227;-85
2021/08/22 00:40:08;;;;;;;;;;;;;;;16.39;83.83;100528.31;1689083;83;20480;-86
2021/08/22 00:42:34;;;;;;;;;;;;;;;16.42;83.51;100527.45;1655692;84;20163;-86
2021/08/22 00:45:02;;;;;;;;;;;;;;;16.38;84.11;100527.50;1685960;84;20841;-85
2021/08/22 00:47:32;;;;;;;;;;;;;;;16.29;84.47;100524.60;1685337;84;20497;-87
2021/08/22 00:50:00;;;;;;;;;;;;;;;16.24;84.46;100528.33;1683499;84;20206;-86
2021/08/22 00:52:28;;;;;;;;;;;;;;;16.24;84.35;100528.33;1687490;84;20206;-86
2021/08/22 00:54:59;;;;;;;;;;;;;;;16.13;84.94;100525.11;1690532;84;20190;-84
2021/08/22 00:57:24;;;;;;;;;;;;;;;15.97;84.98;100531.44;1657999;83;20272;-84
2021/08/22 00:59:50;;;;;;;;;;;;;;;15.97;85.22;100525.27;1686454;84;20131;-84
2021/08/22 01:02:19;;;;;;;;;;;;;;;15.98;85.26;100529.59;1686201;84;21898;-86
2021/08/22 01:04:55;;;;;;;;;;;;;;;15.98;85.64;100523.75;1684510;84;20196;-84
2021/08/22 01:07:24;;;;;;;;;;;;;;;15.99;85.38;100528.59;1687443;83;20202;-84
2021/08/22 01:09:50;;;;;;;;;;;;;;;16.03;85.01;100524.54;1686749;84;20242;-84
2021/08/22 01:12:32;;;;;;;;;;;;;;;16.00;85.06;100519.58;1684678;83;20844;-85
2021/08/22 01:15:04;;;;;;;;;;;;;;;15.92;85.12;100523.15;1660531;84;22108;-86
2021/08/22 01:17:34;;;;;;;;;;;;;;;15.75;86.02;100525.14;1641795;86;20250;-85
2021/08/22 01:20:14;;;;;;;;;;;;;;;15.69;86.73;100525.02;1680618;84;20147;-85
2021/08/22 01:22:40;;;;;;;;;;;;;;;15.62;86.87;100522.26;1677922;84;20177;-84
2021/08/22 01:25:08;;;;;;;;;;;;;;;15.58;87.13;100518.28;1674736;85;20328;-84
2021/08/22 01:27:38;;;;;;;;;;;;;;;15.59;87.72;100518.11;1680128;84;21212;-85
2021/08/22 01:30:12;;;;;;;;;;;;;;;15.63;87.55;100521.26;1678770;84;20521;-84
2021/08/22 01:32:41;;;;;;;;;;;;;;;15.61;87.95;100517.92;1677760;84;20175;-87
2021/08/22 01:35:08;;;;;;;;;;;;;;;15.64;87.72;100517.57;1672459;84;20146;-86
2021/08/22 01:37:35;;;;;;;;;;;;;;;15.73;87.04;100521.00;1650303;85;20179;-86
2021/08/22 01:40:03;;;;;;;;;;;;;;;15.79;86.79;100520.30;1663767;85;21083;-86
2021/08/22 01:42:31;;;;;;;;;;;;;;;15.86;86.35;100517.73;1663017;85;20196;-86
2021/08/22 01:45:00;;;;;;;;;;;;;;;15.76;87.05;100521.45;1661131;85;20177;-86
2021/08/22 01:47:29;;;;;;;;;;;;;;;15.60;87.57;100523.77;1658522;84;20150;-86
2021/08/22 01:49:55;;;;;;;;;;;;;;;15.57;87.82;100517.98;1667985;83;20170;-84
2021/08/22 01:52:20;;;;;;;;;;;;;;;15.53;88.06;100523.33;1664782;85;21016;-86
2021/08/22 01:54:50;;;;;;;;;;;;;;;15.36;88.67;100525.30;1667264;85;20960;-86
2021/08/22 01:57:17;;;;;;;;;;;;;;;15.30;89.50;100526.01;1670208;84;20211;-85
2021/08/22 01:59:43;;;;;;;;;;;;;;;15.25;89.44;100526.54;1666725;85;20183;-85
2021/08/22 02:02:10;;;;;;;;;;;;;;;15.21;89.59;100526.56;1671767;83;20164;-85
2021/08/22 02:04:46;;;;;;;;;;;;;;;15.08;89.93;100522.65;1652648;85;23340;-85
2021/08/22 02:07:16;;;;;;;;;;;;;;;15.06;90.35;100527.33;1663893;85;20100;-85
2021/08/22 02:10:02;;;;;;;;;;;;;;;15.04;90.99;100528.02;1669281;85;20182;-85
2021/08/22 02:12:28;;;;;;;;;;;;;;;15.15;90.12;100525.45;1662122;84;20217;-84
2021/08/22 02:15:05;;;;;;;;;;;;;;;15.21;89.56;100531.87;1665484;84;20521;-85
2021/08/22 02:17:35;;;;;;;;;;;;;;;15.12;89.63;100534.27;1658649;85;21991;-85
2021/08/22 02:20:05;;;;;;;;;;;;;;;15.07;90.24;100530.33;1667051;84;20239;-84
2021/08/22 02:22:34;;;;;;;;;;;;;;;15.03;90.30;100530.34;1670153;85;21127;-85
2021/08/22 02:25:02;;;;;;;;;;;;;;;15.03;90.19;100534.33;1659017;85;20255;-85
2021/08/22 02:27:30;;;;;;;;;;;;;;;15.06;90.18;100538.48;1676845;85;20204;-86
2021/08/22 02:29:56;;;;;;;;;;;;;;;15.10;89.92;100536.29;1665762;85;20175;-85
2021/08/22 02:32:23;;;;;;;;;;;;;;;15.03;89.92;100526.34;1656016;85;20396;-85
2021/08/22 02:34:50;;;;;;;;;;;;;;;15.06;89.72;100519.86;1662151;84;20223;-85
2021/08/22 02:37:18;;;;;;;;;;;;;;;15.00;89.82;100520.05;1681981;84;20678;-86
2021/08/22 02:39:47;;;;;;;;;;;;;;;15.13;89.44;100517.31;1679283;83;20184;-86
2021/08/22 02:42:13;;;;;;;;;;;;;;;15.23;89.10;100517.92;1681497;83;20429;-86
2021/08/22 02:44:40;;;;;;;;;;;;;;;15.30;88.67;100516.19;1683220;83;20132;-85
2021/08/22 02:47:06;;;;;;;;;;;;;;;15.34;88.25;100517.49;1684541;83;20531;-85
2021/08/22 02:49:35;;;;;;;;;;;;;;;15.38;88.27;100515.29;1681965;84;20446;-86
2021/08/22 02:52:01;;;;;;;;;;;;;;;15.40;88.63;100514.12;1674247;84;20137;-86
2021/08/22 02:54:28;;;;;;;;;;;;;;;15.35;88.45;100519.16;1678073;83;21868;-86
2021/08/22 02:56:55;;;;;;;;;;;;;;;15.39;88.28;100507.64;1680640;83;20497;-86
2021/08/22 02:59:23;;;;;;;;;;;;;;;15.40;88.14;100507.47;1650979;84;20205;-86
2021/08/22 03:01:48;;;;;;;;;;;;;;;15.33;88.60;100505.70;1652206;84;20175;-87
2021/08/22 03:04:18;;;;;;;;;;;;;;;15.25;89.39;100506.07;1686390;84;20202;-86
2021/08/22 03:06:45;;;;;;;;;;;;;;;15.21;89.50;100506.61;1680105;84;21156;-86
2021/08/22 03:09:12;;;;;;;;;;;;;;;15.19;89.83;100508.63;1682462;84;20172;-86
2021/08/22 03:11:39;;;;;;;;;;;;;;;15.16;89.98;100511.64;1660206;84;20153;-86
2021/08/22 03:14:06;;;;;;;;;;;;;;;15.22;89.84;100508.27;1652759;84;21402;-86
2021/08/22 03:16:37;;;;;;;;;;;;;;;15.28;89.10;100503.56;1674904;84;20204;-85
2021/08/22 03:19:04;;;;;;;;;;;;;;;15.34;88.76;100500.20;1679538;84;20498;-86
2021/08/22 03:21:30;;;;;;;;;;;;;;;15.39;88.21;100499.14;1683436;83;20549;-85
2021/08/22 03:23:57;;;;;;;;;;;;;;;15.38;87.68;100509.48;1681187;82;20213;-84
2021/08/22 03:26:24;;;;;;;;;;;;;;;15.38;87.66;100510.81;1653393;84;20220;-85
2021/08/22 03:28:53;;;;;;;;;;;;;;;15.30;87.19;100513.52;1680862;84;20280;-86
2021/08/22 03:31:21;;;;;;;;;;;;;;;15.27;87.70;100515.20;1682388;84;22656;-85
2021/08/22 03:33:49;;;;;;;;;;;;;;;15.14;87.80;100513.66;1672286;83;20160;-86
2021/08/22 03:36:14;;;;;;;;;;;;;;;15.23;88.00;100511.27;1674164;84;20168;-85
2021/08/22 03:38:40;;;;;;;;;;;;;;;15.31;87.80;100508.53;1670695;85;20123;-85
2021/08/22 03:41:08;;;;;;;;;;;;;;;15.35;88.06;100503.19;1670044;85;20233;-85
2021/08/22 03:43:34;;;;;;;;;;;;;;;15.33;88.00;100497.20;1665161;85;21077;-86
2021/08/22 03:46:00;;;;;;;;;;;;;;;15.29;88.06;100506.56;1654042;85;20127;-84
2021/08/22 03:48:25;;;;;;;;;;;;;;;15.27;88.27;100509.88;1669260;85;20470;-85
2021/08/22 03:50:57;;;;;;;;;;;;;;;15.22;87.88;100510.93;1667819;85;20850;-85
2021/08/22 03:53:23;;;;;;;;;;;;;;;15.17;88.31;100497.34;1665122;85;20137;-84
2021/08/22 03:55:51;;;;;;;;;;;;;;;15.17;88.30;100506.14;1670334;85;21965;-85
2021/08/22 03:58:16;;;;;;;;;;;;;;;15.14;88.41;100512.33;1670132;85;20526;-84
2021/08/22 04:00:43;;;;;;;;;;;;;;;15.16;88.64;100508.98;1649316;85;20159;-84
2021/08/22 04:03:08;;;;;;;;;;;;;;;15.18;88.52;100517.60;1665964;84;20431;-85
2021/08/22 04:05:36;;;;;;;;;;;;;;;15.12;88.59;100513.84;1666455;85;20803;-85
2021/08/22 04:08:02;;;;;;;;;;;;;;;15.20;88.51;100512.95;1670279;85;21060;-84
2021/08/22 04:10:29;;;;;;;;;;;;;;;15.30;88.06;100510.86;1671262;83;20212;-84
2021/08/22 04:12:56;;;;;;;;;;;;;;;15.41;87.85;100513.12;1661701;85;20139;-85
2021/08/22 04:15:23;;;;;;;;;;;;;;;15.42;87.77;100512.09;1663416;85;20992;-85
2021/08/22 04:17:52;;;;;;;;;;;;;;;15.53;87.42;100506.03;1662169;85;20201;-85
2021/08/22 04:20:18;;;;;;;;;;;;;;;15.64;87.20;100504.26;1665024;84;21308;-85
2021/08/22 04:22:47;;;;;;;;;;;;;;;15.71;86.99;100506.53;1657881;85;20422;-85
2021/08/22 04:25:13;;;;;;;;;;;;;;;15.76;86.70;100505.47;1672815;85;20160;-83
2021/08/22 04:27:39;;;;;;;;;;;;;;;15.79;86.30;100518.45;1651684;85;20182;-83
2021/08/22 04:30:10;;;;;;;;;;;;;;;15.79;86.34;100518.45;1668919;84;20326;-83
2021/08/22 04:32:38;;;;;;;;;;;;;;;15.82;86.04;100507.95;1663388;85;20198;-83
2021/08/22 04:35:07;;;;;;;;;;;;;;;15.81;86.16;100508.95;1652485;85;20115;-83
2021/08/22 04:37:35;;;;;;;;;;;;;;;15.87;86.29;100511.41;1673468;85;20207;-84
2021/08/22 04:40:05;;;;;;;;;;;;;;;15.86;85.73;100515.07;1671475;84;20107;-83
2021/08/22 04:42:33;;;;;;;;;;;;;;;15.88;86.11;100521.03;1667446;83;20210;-83
2021/08/22 04:44:59;;;;;;;;;;;;;;;15.91;85.71;100522.00;1663917;85;20095;-83
2021/08/22 04:47:25;;;;;;;;;;;;;;;15.94;86.16;100528.30;1667935;83;20214;-83
2021/08/22 04:49:53;;;;;;;;;;;;;;;15.95;85.60;100521.97;1656300;84;20325;-83
2021/08/22 04:52:20;;;;;;;;;;;;;;;15.88;85.54;100513.05;1670821;83;20210;-82
2021/08/22 04:54:45;;;;;;;;;;;;;;;15.89;86.20;100522.70;1667787;85;20177;-83
2021/08/22 04:57:13;;;;;;;;;;;;;;;15.91;86.07;100518.00;1650150;85;22290;-83
2021/08/22 04:59:42;;;;;;;;;;;;;;;15.93;85.76;100521.34;1657697;85;20194;-84
2021/08/22 05:02:07;;;;;;;;;;;;;;;16.01;86.20;100523.91;1669937;84;20165;-83
2021/08/22 05:04:35;;;;;;;;;;;;;;;16.10;85.91;100524.14;1672872;84;20448;-83
2021/08/22 05:07:02;;;;;;;;;;;;;;;16.13;85.98;100522.44;1668491;85;20177;-84
2021/08/22 05:09:28;;;;;;;;;;;;;;;16.15;85.87;100523.08;1679162;84;21442;-84
2021/08/22 05:11:53;;;;;;;;;;;;;;;16.26;85.58;100515.64;1669263;83;20719;-84
2021/08/22 05:14:22;;;;;;;;;;;;;;;16.38;85.33;100511.50;1674691;84;20202;-84
2021/08/22 05:16:49;;;;;;;;;;;;;;;16.48;85.43;100514.72;1649143;85;20151;-83
2021/08/22 05:19:15;;;;;;;;;;;;;;;16.46;85.18;100524.72;1671795;85;20537;-86
2021/08/22 05:21:43;;;;;;;;;;;;;;;16.51;84.88;100532.16;1670953;85;21208;-87
2021/08/22 05:24:08;;;;;;;;;;;;;;;16.60;84.55;100526.23;1657194;84;20224;-85
2021/08/22 05:26:34;;;;;;;;;;;;;;;16.57;84.31;100525.27;1671217;83;20154;-85
2021/08/22 05:28:59;;;;;;;;;;;;;;;16.58;84.10;100532.23;1672952;83;20123;-86
2021/08/22 05:31:29;;;;;;;;;;;;;;;16.55;84.05;100528.64;1667196;85;20373;-87
2021/08/22 05:33:55;;;;;;;;;;;;;;;16.56;84.32;100526.27;1660191;85;20140;-85
2021/08/22 05:36:21;;;;;;;;;;;;;;;16.63;84.17;100527.19;1664631;85;20251;-85
2021/08/22 05:38:47;;;;;;;;;;;;;;;16.70;84.24;100526.75;1655220;85;20212;-86
2021/08/22 05:41:14;;;;;;;;;;;;;;;16.72;84.08;100519.89;1678304;83;20173;-86
2021/08/22 05:43:41;;;;;;;;;;;;;;;16.73;84.39;100517.03;1675990;83;20211;-85
2021/08/22 05:46:10;;;;;;;;;;;;;;;16.75;84.78;100509.70;1675830;84;21215;-85
2021/08/22 05:48:36;;;;;;;;;;;;;;;16.98;84.09;100514.06;1677319;83;20231;-84
2021/08/22 05:51:02;;;;;;;;;;;;;;;17.05;83.71;100513.62;1657492;84;20196;-85
2021/08/22 05:53:30;;;;;;;;;;;;;;;17.10;83.74;100520.55;1673938;83;20735;-85
2021/08/22 05:55:56;;;;;;;;;;;;;;;17.16;83.70;100522.45;1676343;83;20277;-85
2021/08/22 05:58:22;;;;;;;;;;;;;;;17.17;83.25;100518.78;1655814;85;21574;-85
2021/08/22 06:00:48;;;;;;;;;;;;;;;17.29;83.02;100521.78;1677080;83;20409;-85
2021/08/22 06:03:13;;;;;;;;;;;;;;;17.32;82.37;100516.55;1678423;83;20162;-86
2021/08/22 06:05:41;;;;;;;;;;;;;;;17.42;82.14;100510.38;1677594;83;20132;-85
2021/08/22 06:08:09;;;;;;;;;;;;;;;17.48;82.18;100517.63;1679673;83;20203;-85
2021/08/22 06:10:34;;;;;;;;;;;;;;;17.58;81.45;100515.44;1679111;83;20095;-85
2021/08/22 06:13:02;;;;;;;;;;;;;;;17.65;80.96;100514.66;1674459;83;20148;-86
2021/08/22 06:15:29;;;;;;;;;;;;;;;17.76;80.76;100521.64;1678286;83;20188;-86
2021/08/22 06:17:57;;;;;;;;;;;;;;;17.82;80.59;100525.88;1674508;85;20225;-86
2021/08/22 06:20:22;;;;;;;;;;;;;;;17.74;80.71;100523.69;1676114;83;20172;-86
2021/08/22 06:22:49;;;;;;;;;;;;;;;17.77;80.88;100529.14;1658376;85;21148;-86
2021/08/22 06:25:15;;;;;;;;;;;;;;;17.82;80.87;100532.08;1672419;85;20989;-86
2021/08/22 06:27:41;;;;;;;;;;;;;;;17.90;80.89;100533.28;1675862;85;20181;-86
2021/08/22 06:30:07;;;;;;;;;;;;;;;18.01;80.76;100531.10;1672817;85;20146;-84
2021/08/22 06:32:33;;;;;;;;;;;;;;;18.13;80.44;100526.83;1676338;84;20726;-84
2021/08/22 06:34:59;;;;;;;;;;;;;;;18.19;79.95;100522.03;1653727;84;21164;-83
2021/08/22 06:37:27;;;;;;;;;;;;;;;18.27;79.83;100524.57;1675226;84;21070;-84
2021/08/22 06:39:54;;;;;;;;;;;;;;;18.42;79.14;100516.92;1678023;84;20103;-83
2021/08/22 06:42:19;;;;;;;;;;;;;;;18.48;77.92;100520.14;1681590;85;20172;-84
2021/08/22 06:44:45;;;;;;;;;;;;;;;18.53;77.34;100515.00;1677535;85;20171;-83
2021/08/22 06:47:11;;;;;;;;;;;;;;;18.64;77.25;100519.80;1663090;85;21225;-84
2021/08/22 06:49:37;;;;;;;;;;;;;;;18.68;76.27;100514.05;1674737;84;20162;-83
2021/08/22 06:52:05;;;;;;;;;;;;;;;18.77;76.21;100510.17;1680169;84;20208;-83
2021/08/22 06:54:31;;;;;;;;;;;;;;;18.91;76.43;100515.89;1679844;84;20183;-83
2021/08/22 06:57:01;;;;;;;;;;;;;;;19.00;76.22;100513.34;1676506;84;20293;-85
2021/08/22 06:59:27;;;;;;;;;;;;;;;19.09;75.59;100511.80;1678651;84;21203;-83
2021/08/22 07:01:53;;;;;;;;;;;;;;;19.21;75.04;100522.75;1677830;83;20263;-83
2021/08/22 07:04:21;;;;;;;;;;;;;;;19.26;74.51;100527.78;1672847;84;20148;-84
2021/08/22 07:06:48;;;;;;;;;;;;;;;19.32;74.16;100526.97;1676546;85;20572;-84
2021/08/22 07:09:17;;;;;;;;;;;;;;;19.38;73.81;100526.15;1679493;85;20484;-84
2021/08/22 07:11:46;;;;;;;;;;;;;;;19.44;73.87;100526.38;1680194;84;20817;-82
2021/08/22 07:14:12;;;;;;;;;;;;;;;19.50;74.04;100518.86;1678296;85;20135;-83
2021/08/22 07:16:40;;;;;;;;;;;;;;;19.58;74.12;100517.31;1680392;84;20273;-82
2021/08/22 07:19:07;;;;;;;;;;;;;;;19.65;74.12;100523.47;1664470;84;20168;-83
2021/08/22 07:21:33;;;;;;;;;;;;;;;19.73;74.46;100527.80;1673658;83;20619;-82
2021/08/22 07:23:59;;;;;;;;;;;;;;;19.76;73.91;100519.86;1659503;84;21825;-86
2021/08/22 07:26:26;;;;;;;;;;;;;;;19.83;73.84;100519.38;1676682;83;20564;-86
2021/08/22 07:28:55;;;;;;;;;;;;;;;19.80;73.28;100528.66;1666270;84;20171;-85
2021/08/22 07:31:22;;;;;;;;;;;;;;;19.81;73.27;100527.63;1679966;84;20175;-86
2021/08/22 07:33:47;;;;;;;;;;;;;;;19.83;73.38;100523.41;1658797;84;20263;-84
2021/08/22 07:36:13;;;;;;;;;;;;;;;19.77;73.65;100525.58;1674554;84;21089;-83
2021/08/22 07:38:39;;;;;;;;;;;;;;;19.78;73.42;100516.48;1647775;85;20472;-83
2021/08/22 07:41:04;;;;;;;;;;;;;;;19.78;73.36;100529.88;1640319;85;20602;-85
2021/08/22 07:43:31;;;;;;;;;;;;;;;19.79;73.61;100528.86;1642341;85;20202;-85
2021/08/22 07:45:57;;;;;;;;;;;;;;;19.74;73.11;100530.27;1650043;85;20211;-85
2021/08/22 07:48:23;;;;;;;;;;;;;;;19.68;73.90;100525.73;1644047;85;21993;-87
2021/08/22 07:50:49;;;;;;;;;;;;;;;19.70;73.08;100521.02;1645413;85;20182;-85
2021/08/22 07:53:16;;;;;;;;;;;;;;;19.70;73.12;100521.51;1646290;85;20532;-84
2021/08/22 07:55:42;;;;;;;;;;;;;;;19.68;73.43;100528.41;1641706;85;20809;-84
2021/08/22 07:58:09;;;;;;;;;;;;;;;19.70;73.24;100522.84;1616537;85;20190;-84
2021/08/22 08:00:35;;;;;;;;;;;;;;;19.71;73.76;100522.64;1645717;85;21086;-83
2021/08/22 08:03:00;;;;;;;;;;;;;;;19.77;74.11;100527.73;1633917;85;20194;-82
2021/08/22 08:05:27;;;;;;;;;;;;;;;19.82;74.56;100527.11;1643898;85;20297;-84
2021/08/22 08:07:52;;;;;;;;;;;;;;;19.84;74.19;100531.73;1639207;85;20442;-82
2021/08/22 08:10:18;;;;;;;;;;;;;;;19.87;74.21;100525.95;1643723;85;20227;-83
2021/08/22 08:12:44;;;;;;;;;;;;;;;19.91;74.17;100528.02;1639333;85;21139;-82
2021/08/22 08:15:10;;;;;;;;;;;;;;;19.92;74.09;100526.17;1647400;85;20243;-82
2021/08/22 08:17:36;;;;;;;;;;;;;;;20.04;74.23;100535.23;1621170;85;20560;-82
2021/08/22 08:20:05;;;;;;;;;;;;;;;20.08;73.83;100540.98;1648349;85;20139;-83
2021/08/22 08:22:31;;;;;;;;;;;;;;;20.08;73.66;100543.14;1649680;84;20329;-85
2021/08/22 08:24:56;;;;;;;;;;;;;;;20.02;73.90;100543.98;1638235;85;21027;-83
2021/08/22 08:27:22;;;;;;;;;;;;;;;20.15;73.90;100542.30;1649346;85;20329;-83
2021/08/22 08:29:49;;;;;;;;;;;;;;;20.11;74.26;100540.57;1649766;85;20197;-83
2021/08/22 08:32:14;;;;;;;;;;;;;;;20.21;74.24;100542.80;1639251;85;20174;-84
2021/08/22 08:34:40;;;;;;;;;;;;;;;20.25;74.09;100540.02;1644054;85;20147;-84
2021/08/22 08:37:07;;;;;;;;;;;;;;;20.25;73.89;100549.41;1648383;85;21940;-83
2021/08/22 08:39:35;;;;;;;;;;;;;;;20.29;73.47;100543.94;1652628;85;20181;-83
2021/08/22 08:42:21;;;;;;;;;;;;;;;20.25;73.89;100542.70;1654869;85;20502;-83
2021/08/22 08:44:47;;;;;;;;;;;;;;;20.20;73.95;100543.34;1653275;86;20784;-82
2021/08/22 08:47:17;;;;;;;;;;;;;;;20.25;74.21;100542.17;1651333;86;20566;-81
2021/08/22 08:50:04;;;;;;;;;;;;;;;20.30;74.59;100542.89;1655017;85;21061;-82
2021/08/22 08:52:48;;;;;;;;;;;;;;;20.32;74.40;100538.66;1653544;86;20355;-81
2021/08/22 08:55:33;;;;;;;;;;;;;;;20.36;74.64;100544.73;1651709;85;20479;-82
2021/08/22 08:57:59;;;;;;;;;;;;;;;20.40;74.50;100544.63;1653279;85;20200;-81
2021/08/22 09:00:37;;;;;;;;;;;;;;;20.30;74.30;100544.76;1653524;86;20221;-82
2021/08/22 09:03:00;;;;;;;;;;;;;;;20.26;73.99;100548.39;1651861;85;20161;-82
2021/08/22 09:05:48;;;;;;;;;;;;;;;20.16;73.83;100545.30;1650760;85;20686;-81
2021/08/22 09:08:40;;;;;;;;;;;;;;;20.11;74.23;100553.98;1650668;86;20169;-82
2021/08/22 09:11:42;;;;;;;;;;;;;;;20.13;74.66;100557.79;1652773;85;20181;-82
2021/08/22 09:14:23;;;;;;;;;;;;;;;20.14;75.24;100559.45;1650562;85;20601;-83
2021/08/22 09:17:25;;;;;;;;;;;;;;;20.23;76.11;100556.85;1575040;86;21677;-84
2021/08/22 09:19:58;;;;;;;;;;;;;;;20.26;75.83;100559.93;1631342;86;20170;-82
2021/08/22 09:22:59;;;;;;;;;;;;;;;20.30;76.16;100557.64;1652816;84;20182;-82
2021/08/22 09:25:57;;;;;;;;;;;;;;;20.44;75.63;100555.22;1652118;85;20137;-83
2021/08/22 09:29:02;;;;;;;;;;;;;;;20.45;74.64;100555.53;1650849;85;20198;-82
2021/08/22 09:32:00;;;;;;;;;;;;;;;20.51;74.53;100555.71;1650269;85;21208;-80
2021/08/22 09:34:54;;;;;;;;;;;;;;;20.57;74.73;100552.18;1648891;85;20284;-82
2021/08/22 09:37:50;;;;;;;;;;;;;;;20.63;75.13;100559.38;1649280;83;20201;-78
2021/08/22 09:40:44;;;;;;;;;;;;;;;20.65;74.89;100560.05;1645889;85;20158;-81
2021/08/22 09:43:32;;;;;;;;;;;;;;;20.65;75.07;100561.39;1643809;85;20157;-82
2021/08/22 09:46:35;;;;;;;;;;;;;;;20.72;75.04;100562.70;1640761;86;22604;-81
2021/08/22 09:49:16;;;;;;;;;;;;;;;20.75;74.63;100565.77;1642864;85;20132;-81
2021/08/22 09:51:49;;;;;;;;;;;;;;;20.82;74.56;100560.39;1575265;89;20240;-82
2021/08/22 09:54:52;;;;;;;;;;;;;;;20.92;74.86;100554.55;1644096;85;20694;-80
2021/08/22 09:57:53;;;;;;;;;;;;;;;21.00;74.84;100550.27;1640207;85;20288;-81
2021/08/22 10:00:50;;;;;;;;;;;;;;;21.11;74.48;100541.51;1642040;85;21244;-84
2021/08/22 10:03:43;;;;;;;;;;;;;;;21.21;74.05;100536.19;1644190;85;21252;-80
2021/08/22 10:06:33;;;;;;;;;;;;;;;21.36;73.01;100535.88;1645058;84;20241;-79
2021/08/22 10:09:24;;;;;;;;;;;;;;;21.45;72.94;100538.61;1641746;85;20241;-80
2021/08/22 10:12:00;;;;;;;;;;;;;;;21.62;72.19;100534.88;1643727;85;20231;-81
2021/08/22 10:14:26;;;;;;;;;;;;;;;21.76;70.75;100531.03;1643281;86;21868;-80
2021/08/22 10:16:52;;;;;;;;;;;;;;;21.87;70.68;100534.33;1648059;85;20917;-80
2021/08/22 10:19:28;;;;;;;;;;;;;;;22.02;70.14;100538.55;1631598;86;20152;-81
2021/08/22 10:22:18;;;;;;;;;;;;;;;22.10;70.44;100536.91;1648773;84;20722;-82
2021/08/22 10:24:46;;;;;;;;;;;;;;;22.22;70.25;100529.74;1649070;85;20178;-80
2021/08/22 10:27:37;;;;;;;;;;;;;;;22.20;69.33;100532.34;1624281;86;40591;-84
2021/08/22 10:30:07;;;;;;;;;;;;;;;22.30;69.18;100531.84;1635346;86;20175;-83
2021/08/22 10:32:34;;;;;;;;;;;;;;;22.41;68.77;100541.34;1641156;85;20649;-80
2021/08/22 10:35:15;;;;;;;;;;;;;;;22.56;67.92;100541.51;1642866;86;20200;-82
2021/08/22 10:37:42;;;;;;;;;;;;;;;22.67;67.29;100534.52;1650082;85;20291;-81
2021/08/22 10:40:28;;;;;;;;;;;;;;;22.74;66.00;100531.22;1674833;85;21127;-82
2021/08/22 10:43:09;;;;;;;;;;;;;;;22.79;66.03;100527.84;1616839;87;20168;-82
2021/08/22 10:45:44;;;;;;;;;;;;;;;22.86;65.68;100532.09;1634543;85;20151;-83
2021/08/22 10:48:13;;;;;;;;;;;;;;;22.90;65.19;100534.64;1632395;85;20176;-82
2021/08/22 10:51:04;;;;;;;;;;;;;;;22.99;65.04;100520.84;1632874;87;20186;-83
2021/08/22 10:53:36;;;;;;;;;;;;;;;23.06;64.48;100523.73;1632170;85;21410;-82
2021/08/22 10:56:24;;;;;;;;;;;;;;;23.02;63.20;100524.42;1634162;87;20276;-83
2021/08/22 10:59:04;;;;;;;;;;;;;;;22.99;62.60;100538.34;1628968;86;20202;-83
2021/08/22 11:01:29;;;;;;;;;;;;;;;22.92;62.83;100525.80;1633426;85;20194;-84
2021/08/22 11:04:18;;;;;;;;;;;;;;;23.08;62.65;100523.50;1633942;85;20239;-85
2021/08/22 11:07:01;;;;;;;;;;;;;;;23.14;62.15;100522.61;1634820;85;21297;-84
2021/08/22 11:09:44;;;;;;;;;;;;;;;23.32;62.17;100519.54;1633651;86;20163;-85
2021/08/22 11:12:26;;;;;;;;;;;;;;;23.47;62.29;100515.88;1636233;85;20608;-85
2021/08/22 11:14:55;;;;;;;;;;;;;;;23.65;61.32;100507.69;1632174;85;20140;-85
2021/08/22 11:17:21;;;;;;;;;;;;;;;23.78;60.75;100509.31;1634595;87;20231;-86
2021/08/22 11:19:48;;;;;;;;;;;;;;;23.80;58.75;100511.78;1632789;85;21146;-85
2021/08/22 11:22:29;;;;;;;;;;;;;;;23.78;59.18;100505.27;1633774;87;20203;-86
2021/08/22 11:24:58;;;;;;;;;;;;;;;23.84;59.55;100502.20;1634146;86;20208;-83
2021/08/22 11:27:26;;;;;;;;;;;;;;;23.97;58.79;100499.27;1633829;87;20923;-87
2021/08/22 11:29:54;;;;;;;;;;;;;;;24.05;58.15;100492.69;1631274;85;20220;-84
2021/08/22 11:32:20;;;;;;;;;;;;;;;24.18;59.04;100495.65;1632635;86;21129;-88
2021/08/22 11:34:49;;;;;;;;;;;;;;;24.23;57.36;100498.44;1631894;86;20171;-85
2021/08/22 11:37:19;;;;;;;;;;;;;;;24.35;56.36;100494.37;1636395;86;20144;-84
2021/08/22 11:39:44;;;;;;;;;;;;;;;24.37;55.77;100493.06;1614477;86;20989;-82
2021/08/22 11:42:10;;;;;;;;;;;;;;;24.46;56.29;100499.45;1608132;87;20785;-82
2021/08/22 11:44:37;;;;;;;;;;;;;;;24.56;55.80;100498.28;1611854;87;21101;-83
2021/08/22 11:47:03;;;;;;;;;;;;;;;24.69;56.03;100500.73;1612783;87;20110;-82
2021/08/22 11:49:29;;;;;;;;;;;;;;;24.73;55.67;100492.45;1607111;87;20486;-82
2021/08/22 11:51:55;;;;;;;;;;;;;;;24.80;54.71;100491.48;1608574;87;20193;-84
2021/08/22 11:54:21;;;;;;;;;;;;;;;24.82;54.71;100485.30;1609155;87;20153;-83
2021/08/22 11:56:46;;;;;;;;;;;;;;;24.95;54.63;100482.27;1605526;87;21117;-83
2021/08/22 11:59:25;;;;;;;;;;;;;;;25.03;54.93;100479.19;1610040;87;20280;-82
2021/08/22 12:02:11;;;;;;;;;;;;;;;25.13;54.53;100476.38;1610856;87;20221;-85
2021/08/22 12:04:37;;;;;;;;;;;;;;;25.24;54.05;100484.92;1610510;87;20153;-88
2021/08/22 12:07:02;;;;;;;;;;;;;;;25.33;52.62;100479.42;1608839;87;20174;-82
2021/08/22 12:09:28;;;;;;;;;;;;;;;25.38;52.96;100480.84;1608863;87;21134;-82
2021/08/22 12:11:54;;;;;;;;;;;;;;;25.49;53.27;100479.66;1608027;87;20798;-85
2021/08/22 12:14:20;;;;;;;;;;;;;;;25.47;52.06;100475.86;1589607;89;20208;-84
2021/08/22 12:16:58;;;;;;;;;;;;;;;25.50;51.31;100474.02;1610184;87;20617;-83
2021/08/22 12:19:27;;;;;;;;;;;;;;;25.50;52.07;100474.55;1611201;87;20561;-85
2021/08/22 12:21:54;;;;;;;;;;;;;;;25.58;51.93;100459.25;1609811;87;21935;-86
2021/08/22 12:24:23;;;;;;;;;;;;;;;25.56;52.32;100462.20;1611469;87;20548;-84
2021/08/22 12:26:52;;;;;;;;;;;;;;;25.63;52.50;100459.31;1608485;87;20555;-84
2021/08/22 12:29:17;;;;;;;;;;;;;;;25.51;52.31;100461.30;1607723;87;20252;-83
2021/08/22 12:31:47;;;;;;;;;;;;;;;25.57;51.84;100458.95;1570894;88;20315;-83
2021/08/22 12:34:15;;;;;;;;;;;;;;;25.54;52.44;100454.05;1609607;87;20170;-81
2021/08/22 12:36:42;;;;;;;;;;;;;;;25.59;53.00;100458.16;1610878;87;20442;-88
2021/08/22 12:39:09;;;;;;;;;;;;;;;25.59;52.80;100456.81;1625870;87;20350;-84
2021/08/22 12:41:51;;;;;;;;;;;;;;;25.64;52.49;100451.50;1625492;86;20220;-82
2021/08/22 12:44:24;;;;;;;;;;;;;;;25.68;52.05;100455.31;1641700;85;20188;-86
2021/08/22 12:46:55;;;;;;;;;;;;;;;25.74;52.08;100462.44;1646880;85;21247;-84
2021/08/22 12:49:21;;;;;;;;;;;;;;;25.75;52.28;100460.03;1645661;85;20155;-84
2021/08/22 12:51:55;;;;;;;;;;;;;;;25.83;52.67;100460.67;1648812;85;20286;-83